sensor_id;sensor_type;location;lat;lon;timestamp;temperature;humidity
27803;DHT22;15182;48.174;11.562;2022-08-19T00:01:40;24.30;94.90
27803;DHT22;15182;48.174;11.562;2022-08-19T00:04:15;24.30;95.00
27803;DHT22;15182;48.174;11.562;2022-08-19T00:06:48;24.20;95.10
27803;DHT22;15182;48.174;11.562;2022-08-19T00:09:22;24.20;95.10
27803;DHT22;15182;48.174;11.562;2022-08-19T00:11:59;24.20;95.10
27803;DHT22;15182;48.174;11.562;2022-08-19T00:14:31;24.20;95.20
27803;DHT22;15182;48.174;11.562;2022-08-19T00:17:03;24.20;95.20
27803;DHT22;15182;48.174;11.562;2022-08-19T00:19:36;24.20;95.20
27803;DHT22;15182;48.174;11.562;2022-08-19T00:22:08;24.20;95.30
27803;DHT22;15182;48.174;11.562;2022-08-19T00:24:39;24.20;95.20
27803;DHT22;15182;48.174;11.562;2022-08-19T00:27:11;24.20;95.20
27803;DHT22;15182;48.174;11.562;2022-08-19T00:29:42;24.10;95.20
27803;DHT22;15182;48.174;11.562;2022-08-19T00:32:14;24.10;95.20
27803;DHT22;15182;48.174;11.562;2022-08-19T00:34:45;24.10;95.40
27803;DHT22;15182;48.174;11.562;2022-08-19T00:37:17;24.10;95.40
27803;DHT22;15182;48.174;11.562;2022-08-19T00:39:50;24.00;95.50
27803;DHT22;15182;48.174;11.562;2022-08-19T00:42:23;24.00;95.60
27803;DHT22;15182;48.174;11.562;2022-08-19T00:44:56;23.90;95.70
27803;DHT22;15182;48.174;11.562;2022-08-19T00:47:28;23.90;95.70
27803;DHT22;15182;48.174;11.562;2022-08-19T00:50:00;23.90;95.80
27803;DHT22;15182;48.174;11.562;2022-08-19T00:52:35;23.90;95.90
27803;DHT22;15182;48.174;11.562;2022-08-19T00:55:16;23.90;96.00
27803;DHT22;15182;48.174;11.562;2022-08-19T00:57:56;23.90;96.00
27803;DHT22;15182;48.174;11.562;2022-08-19T01:00:31;23.90;96.00
27803;DHT22;15182;48.174;11.562;2022-08-19T01:03:07;23.90;95.90
27803;DHT22;15182;48.174;11.562;2022-08-19T01:05:43;23.90;96.00
27803;DHT22;15182;48.174;11.562;2022-08-19T01:08:16;23.90;96.00
27803;DHT22;15182;48.174;11.562;2022-08-19T01:10:51;23.90;96.30
27803;DHT22;15182;48.174;11.562;2022-08-19T01:13:27;23.90;96.00
27803;DHT22;15182;48.174;11.562;2022-08-19T01:16:04;23.90;96.10
27803;DHT22;15182;48.174;11.562;2022-08-19T01:18:41;23.90;96.10
27803;DHT22;15182;48.174;11.562;2022-08-19T01:21:18;23.90;96.10
27803;DHT22;15182;48.174;11.562;2022-08-19T01:23:55;23.80;96.20
27803;DHT22;15182;48.174;11.562;2022-08-19T01:26:27;23.90;96.20
27803;DHT22;15182;48.174;11.562;2022-08-19T01:29:00;23.80;96.20
27803;DHT22;15182;48.174;11.562;2022-08-19T01:31:32;23.80;96.20
27803;DHT22;15182;48.174;11.562;2022-08-19T01:34:05;23.80;96.30
27803;DHT22;15182;48.174;11.562;2022-08-19T01:36:40;23.80;96.30
27803;DHT22;15182;48.174;11.562;2022-08-19T01:39:19;23.80;96.40
27803;DHT22;15182;48.174;11.562;2022-08-19T01:41:52;23.80;96.50
27803;DHT22;15182;48.174;11.562;2022-08-19T01:44:24;23.80;96.40
27803;DHT22;15182;48.174;11.562;2022-08-19T01:46:55;23.70;96.50
27803;DHT22;15182;48.174;11.562;2022-08-19T01:49:27;23.70;96.50
27803;DHT22;15182;48.174;11.562;2022-08-19T01:51:58;23.80;96.60
27803;DHT22;15182;48.174;11.562;2022-08-19T01:54:32;23.80;96.60
27803;DHT22;15182;48.174;11.562;2022-08-19T01:57:07;23.80;96.70
27803;DHT22;15182;48.174;11.562;2022-08-19T01:59:42;23.80;96.70
27803;DHT22;15182;48.174;11.562;2022-08-19T02:02:14;23.80;96.70
27803;DHT22;15182;48.174;11.562;2022-08-19T02:04:45;23.80;96.60
27803;DHT22;15182;48.174;11.562;2022-08-19T02:07:17;23.80;96.60
27803;DHT22;15182;48.174;11.562;2022-08-19T02:09:52;23.80;96.70
27803;DHT22;15182;48.174;11.562;2022-08-19T02:12:23;23.80;96.70
27803;DHT22;15182;48.174;11.562;2022-08-19T02:14:55;23.80;96.70
27803;DHT22;15182;48.174;11.562;2022-08-19T02:17:26;23.80;96.80
27803;DHT22;15182;48.174;11.562;2022-08-19T02:19:58;23.80;96.80
27803;DHT22;15182;48.174;11.562;2022-08-19T02:22:30;23.80;96.80
27803;DHT22;15182;48.174;11.562;2022-08-19T02:25:03;23.80;96.70
27803;DHT22;15182;48.174;11.562;2022-08-19T02:27:36;23.70;96.80
27803;DHT22;15182;48.174;11.562;2022-08-19T02:30:11;23.70;96.80
27803;DHT22;15182;48.174;11.562;2022-08-19T02:32:45;23.70;96.80
27803;DHT22;15182;48.174;11.562;2022-08-19T02:35:19;23.70;96.80
27803;DHT22;15182;48.174;11.562;2022-08-19T02:37:51;23.70;96.90
27803;DHT22;15182;48.174;11.562;2022-08-19T02:40:47;23.70;96.90
27803;DHT22;15182;48.174;11.562;2022-08-19T02:43:21;23.70;97.00
27803;DHT22;15182;48.174;11.562;2022-08-19T02:45:54;23.70;96.90
27803;DHT22;15182;48.174;11.562;2022-08-19T02:48:27;23.60;97.00
27803;DHT22;15182;48.174;11.562;2022-08-19T02:51:00;23.60;97.00
27803;DHT22;15182;48.174;11.562;2022-08-19T02:53:33;23.60;97.00
27803;DHT22;15182;48.174;11.562;2022-08-19T02:56:09;23.60;97.00
27803;DHT22;15182;48.174;11.562;2022-08-19T02:58:41;23.60;97.60
27803;DHT22;15182;48.174;11.562;2022-08-19T03:01:18;23.60;97.50
27803;DHT22;15182;48.174;11.562;2022-08-19T03:03:51;23.50;97.10
27803;DHT22;15182;48.174;11.562;2022-08-19T03:06:24;23.50;97.20
27803;DHT22;15182;48.174;11.562;2022-08-19T03:08:57;23.50;97.20
27803;DHT22;15182;48.174;11.562;2022-08-19T03:11:31;23.50;97.20
27803;DHT22;15182;48.174;11.562;2022-08-19T03:14:06;23.50;97.30
27803;DHT22;15182;48.174;11.562;2022-08-19T03:16:43;23.50;97.30
27803;DHT22;15182;48.174;11.562;2022-08-19T03:19:18;23.50;97.40
27803;DHT22;15182;48.174;11.562;2022-08-19T03:21:50;23.50;97.30
27803;DHT22;15182;48.174;11.562;2022-08-19T03:24:22;23.50;97.20
27803;DHT22;15182;48.174;11.562;2022-08-19T03:26:56;23.50;97.30
27803;DHT22;15182;48.174;11.562;2022-08-19T03:29:29;23.50;97.40
27803;DHT22;15182;48.174;11.562;2022-08-19T03:32:02;23.50;97.40
27803;DHT22;15182;48.174;11.562;2022-08-19T03:34:37;23.50;97.40
27803;DHT22;15182;48.174;11.562;2022-08-19T03:37:10;23.60;97.40
27803;DHT22;15182;48.174;11.562;2022-08-19T03:39:43;23.50;97.40
27803;DHT22;15182;48.174;11.562;2022-08-19T03:42:16;23.60;97.50
27803;DHT22;15182;48.174;11.562;2022-08-19T03:44:47;23.50;97.50
27803;DHT22;15182;48.174;11.562;2022-08-19T03:47:18;23.50;97.40
27803;DHT22;15182;48.174;11.562;2022-08-19T03:49:50;23.60;97.50
27803;DHT22;15182;48.174;11.562;2022-08-19T03:52:21;23.60;97.50
27803;DHT22;15182;48.174;11.562;2022-08-19T03:54:52;23.60;97.50
27803;DHT22;15182;48.174;11.562;2022-08-19T03:57:25;23.60;97.50
27803;DHT22;15182;48.174;11.562;2022-08-19T03:59:57;23.60;97.50
27803;DHT22;15182;48.174;11.562;2022-08-19T04:02:28;23.60;97.50
27803;DHT22;15182;48.174;11.562;2022-08-19T04:04:59;23.60;97.50
27803;DHT22;15182;48.174;11.562;2022-08-19T04:07:31;23.60;97.60
27803;DHT22;15182;48.174;11.562;2022-08-19T04:10:02;23.60;97.60
27803;DHT22;15182;48.174;11.562;2022-08-19T04:12:36;23.60;97.50
27803;DHT22;15182;48.174;11.562;2022-08-19T04:15:09;23.60;97.60
27803;DHT22;15182;48.174;11.562;2022-08-19T04:17:41;23.60;97.70
27803;DHT22;15182;48.174;11.562;2022-08-19T04:20:13;23.60;97.60
27803;DHT22;15182;48.174;11.562;2022-08-19T04:22:44;23.50;97.60
27803;DHT22;15182;48.174;11.562;2022-08-19T04:25:16;23.60;97.70
27803;DHT22;15182;48.174;11.562;2022-08-19T04:27:49;23.50;97.70
27803;DHT22;15182;48.174;11.562;2022-08-19T04:30:20;23.50;97.80
27803;DHT22;15182;48.174;11.562;2022-08-19T04:32:51;23.60;97.80
27803;DHT22;15182;48.174;11.562;2022-08-19T04:35:24;23.60;97.80
27803;DHT22;15182;48.174;11.562;2022-08-19T04:37:56;23.60;97.90
27803;DHT22;15182;48.174;11.562;2022-08-19T04:40:27;23.60;97.90
27803;DHT22;15182;48.174;11.562;2022-08-19T04:43:18;23.60;97.90
27803;DHT22;15182;48.174;11.562;2022-08-19T04:45:49;23.60;97.90
27803;DHT22;15182;48.174;11.562;2022-08-19T04:48:20;23.60;97.90
27803;DHT22;15182;48.174;11.562;2022-08-19T04:50:54;23.60;97.90
27803;DHT22;15182;48.174;11.562;2022-08-19T04:53:27;23.60;97.90
27803;DHT22;15182;48.174;11.562;2022-08-19T04:55:59;23.60;98.00
27803;DHT22;15182;48.174;11.562;2022-08-19T04:58:40;23.60;98.00
27803;DHT22;15182;48.174;11.562;2022-08-19T05:01:13;23.70;98.00
27803;DHT22;15182;48.174;11.562;2022-08-19T05:03:46;23.70;97.90
27803;DHT22;15182;48.174;11.562;2022-08-19T05:06:20;23.70;97.90
27803;DHT22;15182;48.174;11.562;2022-08-19T05:08:55;23.70;98.00
27803;DHT22;15182;48.174;11.562;2022-08-19T05:11:27;23.70;98.00
27803;DHT22;15182;48.174;11.562;2022-08-19T05:14:09;23.70;98.00
27803;DHT22;15182;48.174;11.562;2022-08-19T05:16:41;23.70;98.00
27803;DHT22;15182;48.174;11.562;2022-08-19T05:19:12;23.70;98.00
27803;DHT22;15182;48.174;11.562;2022-08-19T05:22:02;23.70;98.00
27803;DHT22;15182;48.174;11.562;2022-08-19T05:24:52;23.70;98.00
27803;DHT22;15182;48.174;11.562;2022-08-19T05:27:23;23.70;98.00
27803;DHT22;15182;48.174;11.562;2022-08-19T05:29:56;23.70;98.00
27803;DHT22;15182;48.174;11.562;2022-08-19T05:32:28;23.70;98.00
27803;DHT22;15182;48.174;11.562;2022-08-19T05:34:59;23.70;98.00
27803;DHT22;15182;48.174;11.562;2022-08-19T05:37:30;23.70;98.00
27803;DHT22;15182;48.174;11.562;2022-08-19T05:40:01;23.70;98.00
27803;DHT22;15182;48.174;11.562;2022-08-19T05:42:34;23.70;98.00
27803;DHT22;15182;48.174;11.562;2022-08-19T05:45:08;23.70;98.00
27803;DHT22;15182;48.174;11.562;2022-08-19T05:47:41;23.70;98.00
27803;DHT22;15182;48.174;11.562;2022-08-19T05:50:12;23.70;98.00
27803;DHT22;15182;48.174;11.562;2022-08-19T05:52:45;23.70;98.00
27803;DHT22;15182;48.174;11.562;2022-08-19T05:55:17;23.70;98.00
27803;DHT22;15182;48.174;11.562;2022-08-19T05:57:50;23.80;98.00
27803;DHT22;15182;48.174;11.562;2022-08-19T06:00:22;23.80;98.00
27803;DHT22;15182;48.174;11.562;2022-08-19T06:02:54;23.80;98.00
27803;DHT22;15182;48.174;11.562;2022-08-19T06:05:31;23.80;97.90
27803;DHT22;15182;48.174;11.562;2022-08-19T06:08:03;23.80;97.90
27803;DHT22;15182;48.174;11.562;2022-08-19T06:10:35;23.80;98.00
27803;DHT22;15182;48.174;11.562;2022-08-19T06:13:06;23.70;97.90
27803;DHT22;15182;48.174;11.562;2022-08-19T06:15:39;23.70;98.00
27803;DHT22;15182;48.174;11.562;2022-08-19T06:18:12;23.80;98.00
27803;DHT22;15182;48.174;11.562;2022-08-19T06:20:44;23.70;98.00
27803;DHT22;15182;48.174;11.562;2022-08-19T06:23:17;23.80;98.00
27803;DHT22;15182;48.174;11.562;2022-08-19T06:25:48;23.80;98.00
27803;DHT22;15182;48.174;11.562;2022-08-19T06:28:19;23.70;98.10
27803;DHT22;15182;48.174;11.562;2022-08-19T06:30:52;23.70;98.00
27803;DHT22;15182;48.174;11.562;2022-08-19T06:33:24;23.70;98.10
27803;DHT22;15182;48.174;11.562;2022-08-19T06:35:57;23.70;98.10
27803;DHT22;15182;48.174;11.562;2022-08-19T06:38:28;23.70;98.20
27803;DHT22;15182;48.174;11.562;2022-08-19T06:41:05;23.70;98.10
27803;DHT22;15182;48.174;11.562;2022-08-19T06:43:37;23.70;98.20
27803;DHT22;15182;48.174;11.562;2022-08-19T06:46:12;23.70;98.20
27803;DHT22;15182;48.174;11.562;2022-08-19T06:48:44;23.70;98.30
27803;DHT22;15182;48.174;11.562;2022-08-19T06:51:17;23.70;98.60
27803;DHT22;15182;48.174;11.562;2022-08-19T06:53:50;23.80;98.30
27803;DHT22;15182;48.174;11.562;2022-08-19T06:56:24;23.80;98.30
27803;DHT22;15182;48.174;11.562;2022-08-19T06:59:02;23.80;98.40
27803;DHT22;15182;48.174;11.562;2022-08-19T07:01:39;23.80;98.30
27803;DHT22;15182;48.174;11.562;2022-08-19T07:04:15;23.80;98.40
27803;DHT22;15182;48.174;11.562;2022-08-19T07:06:48;23.80;98.70
27803;DHT22;15182;48.174;11.562;2022-08-19T07:09:25;23.80;98.40
27803;DHT22;15182;48.174;11.562;2022-08-19T07:11:58;23.90;98.60
27803;DHT22;15182;48.174;11.562;2022-08-19T07:14:29;23.90;98.70
27803;DHT22;15182;48.174;11.562;2022-08-19T07:17:07;23.90;98.70
27803;DHT22;15182;48.174;11.562;2022-08-19T07:19:41;23.90;98.80
27803;DHT22;15182;48.174;11.562;2022-08-19T07:22:12;23.90;98.80
27803;DHT22;15182;48.174;11.562;2022-08-19T07:24:45;23.90;98.70
27803;DHT22;15182;48.174;11.562;2022-08-19T07:27:17;23.90;98.80
27803;DHT22;15182;48.174;11.562;2022-08-19T07:29:49;23.80;98.80
27803;DHT22;15182;48.174;11.562;2022-08-19T07:32:22;23.80;98.90
27803;DHT22;15182;48.174;11.562;2022-08-19T07:34:54;23.80;99.00
27803;DHT22;15182;48.174;11.562;2022-08-19T07:37:28;23.80;99.00
27803;DHT22;15182;48.174;11.562;2022-08-19T07:39:59;23.90;99.10
27803;DHT22;15182;48.174;11.562;2022-08-19T07:42:30;23.90;99.30
27803;DHT22;15182;48.174;11.562;2022-08-19T07:45:02;23.90;99.20
27803;DHT22;15182;48.174;11.562;2022-08-19T07:47:36;24.00;99.30
27803;DHT22;15182;48.174;11.562;2022-08-19T07:50:10;24.00;99.30
27803;DHT22;15182;48.174;11.562;2022-08-19T07:52:42;24.10;99.30
27803;DHT22;15182;48.174;11.562;2022-08-19T07:55:15;24.10;99.20
27803;DHT22;15182;48.174;11.562;2022-08-19T07:57:48;24.10;99.10
27803;DHT22;15182;48.174;11.562;2022-08-19T08:00:21;24.10;99.10
27803;DHT22;15182;48.174;11.562;2022-08-19T08:02:54;24.10;99.10
27803;DHT22;15182;48.174;11.562;2022-08-19T08:05:26;24.20;99.20
27803;DHT22;15182;48.174;11.562;2022-08-19T08:08:15;24.20;99.00
27803;DHT22;15182;48.174;11.562;2022-08-19T08:11:18;24.20;99.00
27803;DHT22;15182;48.174;11.562;2022-08-19T08:13:50;24.20;99.00
27803;DHT22;15182;48.174;11.562;2022-08-19T08:16:22;24.20;99.10
27803;DHT22;15182;48.174;11.562;2022-08-19T08:18:59;24.10;99.00
27803;DHT22;15182;48.174;11.562;2022-08-19T08:21:32;24.20;99.00
27803;DHT22;15182;48.174;11.562;2022-08-19T08:24:05;24.20;99.00
27803;DHT22;15182;48.174;11.562;2022-08-19T08:26:36;24.10;99.00
27803;DHT22;15182;48.174;11.562;2022-08-19T08:29:08;24.10;99.00
27803;DHT22;15182;48.174;11.562;2022-08-19T08:31:41;24.10;99.10
27803;DHT22;15182;48.174;11.562;2022-08-19T08:34:15;24.10;99.10
27803;DHT22;15182;48.174;11.562;2022-08-19T08:36:47;24.10;99.10
27803;DHT22;15182;48.174;11.562;2022-08-19T08:39:21;24.10;99.10
27803;DHT22;15182;48.174;11.562;2022-08-19T08:41:57;24.10;99.10
27803;DHT22;15182;48.174;11.562;2022-08-19T08:44:42;24.10;99.20
27803;DHT22;15182;48.174;11.562;2022-08-19T08:47:20;24.10;99.30
27803;DHT22;15182;48.174;11.562;2022-08-19T08:49:57;24.10;99.30
27803;DHT22;15182;48.174;11.562;2022-08-19T08:52:34;24.00;99.40
27803;DHT22;15182;48.174;11.562;2022-08-19T08:55:14;24.00;99.40
27803;DHT22;15182;48.174;11.562;2022-08-19T08:57:52;24.10;99.40
27803;DHT22;15182;48.174;11.562;2022-08-19T09:00:28;24.10;99.60
27803;DHT22;15182;48.174;11.562;2022-08-19T09:03:09;24.10;99.60
27803;DHT22;15182;48.174;11.562;2022-08-19T09:05:55;24.10;99.80
27803;DHT22;15182;48.174;11.562;2022-08-19T09:08:33;24.10;99.80
27803;DHT22;15182;48.174;11.562;2022-08-19T09:11:10;24.10;99.80
27803;DHT22;15182;48.174;11.562;2022-08-19T09:13:48;24.10;99.90
27803;DHT22;15182;48.174;11.562;2022-08-19T09:16:25;24.10;99.90
27803;DHT22;15182;48.174;11.562;2022-08-19T09:18:58;24.00;99.90
27803;DHT22;15182;48.174;11.562;2022-08-19T09:21:34;24.10;99.90
27803;DHT22;15182;48.174;11.562;2022-08-19T09:24:06;24.00;99.90
27803;DHT22;15182;48.174;11.562;2022-08-19T09:26:38;24.00;99.90
27803;DHT22;15182;48.174;11.562;2022-08-19T09:29:11;24.00;99.90
27803;DHT22;15182;48.174;11.562;2022-08-19T09:31:43;24.00;99.90
27803;DHT22;15182;48.174;11.562;2022-08-19T09:34:14;24.00;99.90
27803;DHT22;15182;48.174;11.562;2022-08-19T09:36:49;24.00;99.90
27803;DHT22;15182;48.174;11.562;2022-08-19T09:39:23;24.00;99.90
27803;DHT22;15182;48.174;11.562;2022-08-19T09:41:54;24.00;99.90
27803;DHT22;15182;48.174;11.562;2022-08-19T09:44:25;24.00;99.90
27803;DHT22;15182;48.174;11.562;2022-08-19T09:46:57;24.00;99.90
27803;DHT22;15182;48.174;11.562;2022-08-19T09:49:29;24.00;99.90
27803;DHT22;15182;48.174;11.562;2022-08-19T09:52:02;24.00;99.90
27803;DHT22;15182;48.174;11.562;2022-08-19T09:54:35;24.00;99.90
27803;DHT22;15182;48.174;11.562;2022-08-19T09:57:07;24.00;99.90
27803;DHT22;15182;48.174;11.562;2022-08-19T09:59:40;23.90;99.90
27803;DHT22;15182;48.174;11.562;2022-08-19T10:02:12;23.90;99.90
27803;DHT22;15182;48.174;11.562;2022-08-19T10:04:44;23.90;99.90
27803;DHT22;15182;48.174;11.562;2022-08-19T10:07:34;23.90;99.90
27803;DHT22;15182;48.174;11.562;2022-08-19T10:10:07;24.00;99.90
27803;DHT22;15182;48.174;11.562;2022-08-19T10:12:39;24.00;99.90
27803;DHT22;15182;48.174;11.562;2022-08-19T10:15:15;24.00;99.90
27803;DHT22;15182;48.174;11.562;2022-08-19T10:17:48;24.10;99.90
27803;DHT22;15182;48.174;11.562;2022-08-19T10:20:20;24.10;99.90
27803;DHT22;15182;48.174;11.562;2022-08-19T10:22:53;24.10;99.90
27803;DHT22;15182;48.174;11.562;2022-08-19T10:25:26;24.20;99.90
27803;DHT22;15182;48.174;11.562;2022-08-19T10:27:57;24.30;99.90
27803;DHT22;15182;48.174;11.562;2022-08-19T10:30:28;24.40;99.90
27803;DHT22;15182;48.174;11.562;2022-08-19T10:33:00;24.40;99.90
27803;DHT22;15182;48.174;11.562;2022-08-19T10:35:34;24.50;99.90
27803;DHT22;15182;48.174;11.562;2022-08-19T10:38:07;24.60;99.90
27803;DHT22;15182;48.174;11.562;2022-08-19T10:40:38;24.70;99.90
27803;DHT22;15182;48.174;11.562;2022-08-19T10:43:10;24.80;99.90
27803;DHT22;15182;48.174;11.562;2022-08-19T10:45:51;24.90;99.90
27803;DHT22;15182;48.174;11.562;2022-08-19T10:48:27;25.00;99.90
27803;DHT22;15182;48.174;11.562;2022-08-19T10:50:59;25.10;99.90
27803;DHT22;15182;48.174;11.562;2022-08-19T10:53:49;25.20;99.90
27803;DHT22;15182;48.174;11.562;2022-08-19T10:56:22;25.30;99.90
27803;DHT22;15182;48.174;11.562;2022-08-19T10:59:11;25.30;99.90
27803;DHT22;15182;48.174;11.562;2022-08-19T11:01:45;25.30;99.90
27803;DHT22;15182;48.174;11.562;2022-08-19T11:04:18;25.30;99.90
27803;DHT22;15182;48.174;11.562;2022-08-19T11:06:51;25.40;99.90
27803;DHT22;15182;48.174;11.562;2022-08-19T11:09:25;25.30;99.90
27803;DHT22;15182;48.174;11.562;2022-08-19T11:11:57;25.30;99.90
27803;DHT22;15182;48.174;11.562;2022-08-19T11:14:29;25.30;99.90
27803;DHT22;15182;48.174;11.562;2022-08-19T11:17:00;25.30;99.90
27803;DHT22;15182;48.174;11.562;2022-08-19T11:19:34;25.20;99.90
27803;DHT22;15182;48.174;11.562;2022-08-19T11:22:07;25.20;99.90
27803;DHT22;15182;48.174;11.562;2022-08-19T11:24:39;25.20;99.90
27803;DHT22;15182;48.174;11.562;2022-08-19T11:27:11;25.20;99.90
27803;DHT22;15182;48.174;11.562;2022-08-19T11:29:43;25.20;99.90
27803;DHT22;15182;48.174;11.562;2022-08-19T11:32:14;25.20;99.90
27803;DHT22;15182;48.174;11.562;2022-08-19T11:34:45;25.20;99.90
27803;DHT22;15182;48.174;11.562;2022-08-19T11:37:17;25.20;99.90
27803;DHT22;15182;48.174;11.562;2022-08-19T11:39:49;25.20;99.90
27803;DHT22;15182;48.174;11.562;2022-08-19T11:42:21;25.20;99.90
27803;DHT22;15182;48.174;11.562;2022-08-19T11:45:10;25.30;99.90
27803;DHT22;15182;48.174;11.562;2022-08-19T11:47:42;25.30;99.90
27803;DHT22;15182;48.174;11.562;2022-08-19T11:50:15;25.20;99.80
27803;DHT22;15182;48.174;11.562;2022-08-19T11:52:47;25.30;99.80
27803;DHT22;15182;48.174;11.562;2022-08-19T11:55:20;25.30;99.80
27803;DHT22;15182;48.174;11.562;2022-08-19T11:57:52;25.40;99.90
27803;DHT22;15182;48.174;11.562;2022-08-19T12:00:23;25.40;99.70
27803;DHT22;15182;48.174;11.562;2022-08-19T12:02:54;25.40;99.60
27803;DHT22;15182;48.174;11.562;2022-08-19T12:05:26;25.40;99.30
27803;DHT22;15182;48.174;11.562;2022-08-19T12:07:57;25.40;99.20
27803;DHT22;15182;48.174;11.562;2022-08-19T12:10:30;25.40;99.10
27803;DHT22;15182;48.174;11.562;2022-08-19T12:13:02;25.40;99.30
27803;DHT22;15182;48.174;11.562;2022-08-19T12:15:37;25.40;99.10
27803;DHT22;15182;48.174;11.562;2022-08-19T12:18:10;25.40;99.20
27803;DHT22;15182;48.174;11.562;2022-08-19T12:20:43;25.40;98.90
27803;DHT22;15182;48.174;11.562;2022-08-19T12:23:15;25.40;98.90
27803;DHT22;15182;48.174;11.562;2022-08-19T12:25:49;25.40;98.90
27803;DHT22;15182;48.174;11.562;2022-08-19T12:28:24;25.30;98.90
27803;DHT22;15182;48.174;11.562;2022-08-19T12:30:58;25.30;98.90
27803;DHT22;15182;48.174;11.562;2022-08-19T12:33:29;25.20;99.00
27803;DHT22;15182;48.174;11.562;2022-08-19T12:36:03;25.20;99.10
27803;DHT22;15182;48.174;11.562;2022-08-19T12:38:38;25.20;99.20
27803;DHT22;15182;48.174;11.562;2022-08-19T12:41:14;25.20;99.20
27803;DHT22;15182;48.174;11.562;2022-08-19T12:43:46;25.30;99.20
27803;DHT22;15182;48.174;11.562;2022-08-19T12:46:19;25.30;99.60
27803;DHT22;15182;48.174;11.562;2022-08-19T12:48:51;25.50;99.70
27803;DHT22;15182;48.174;11.562;2022-08-19T12:51:23;25.60;99.50
27803;DHT22;15182;48.174;11.562;2022-08-19T12:53:55;25.80;99.10
27803;DHT22;15182;48.174;11.562;2022-08-19T12:56:27;25.90;98.70
27803;DHT22;15182;48.174;11.562;2022-08-19T12:59:00;26.00;98.50
27803;DHT22;15182;48.174;11.562;2022-08-19T13:01:32;26.00;98.30
27803;DHT22;15182;48.174;11.562;2022-08-19T13:04:03;26.00;98.20
27803;DHT22;15182;48.174;11.562;2022-08-19T13:06:35;26.00;97.90
27803;DHT22;15182;48.174;11.562;2022-08-19T13:09:06;26.10;97.60
27803;DHT22;15182;48.174;11.562;2022-08-19T13:11:40;26.10;97.50
27803;DHT22;15182;48.174;11.562;2022-08-19T13:14:12;26.10;97.40
27803;DHT22;15182;48.174;11.562;2022-08-19T13:16:44;26.20;97.80
27803;DHT22;15182;48.174;11.562;2022-08-19T13:19:15;26.20;97.90
27803;DHT22;15182;48.174;11.562;2022-08-19T13:21:51;26.40;97.50
27803;DHT22;15182;48.174;11.562;2022-08-19T13:24:24;26.40;97.00
27803;DHT22;15182;48.174;11.562;2022-08-19T13:26:56;26.50;97.10
27803;DHT22;15182;48.174;11.562;2022-08-19T13:29:28;26.50;96.70
27803;DHT22;15182;48.174;11.562;2022-08-19T13:32:17;26.60;96.80
27803;DHT22;15182;48.174;11.562;2022-08-19T13:35:07;26.60;96.60
27803;DHT22;15182;48.174;11.562;2022-08-19T13:37:40;26.60;96.50
27803;DHT22;15182;48.174;11.562;2022-08-19T13:40:13;26.60;96.40
27803;DHT22;15182;48.174;11.562;2022-08-19T13:42:51;26.60;96.20
27803;DHT22;15182;48.174;11.562;2022-08-19T13:45:26;26.60;96.20
27803;DHT22;15182;48.174;11.562;2022-08-19T13:48:01;26.50;96.30
27803;DHT22;15182;48.174;11.562;2022-08-19T13:50:40;26.50;96.30
27803;DHT22;15182;48.174;11.562;2022-08-19T13:53:13;26.50;96.10
27803;DHT22;15182;48.174;11.562;2022-08-19T13:55:45;26.40;96.10
27803;DHT22;15182;48.174;11.562;2022-08-19T13:58:19;26.40;96.40
27803;DHT22;15182;48.174;11.562;2022-08-19T14:00:51;26.40;96.30
27803;DHT22;15182;48.174;11.562;2022-08-19T14:03:22;26.30;96.40
27803;DHT22;15182;48.174;11.562;2022-08-19T14:05:54;26.30;96.30
27803;DHT22;15182;48.174;11.562;2022-08-19T14:08:25;26.30;96.40
27803;DHT22;15182;48.174;11.562;2022-08-19T14:11:00;26.30;96.40
27803;DHT22;15182;48.174;11.562;2022-08-19T14:13:33;26.30;96.60
27803;DHT22;15182;48.174;11.562;2022-08-19T14:16:09;26.30;96.60
27803;DHT22;15182;48.174;11.562;2022-08-19T14:18:42;26.40;96.50
27803;DHT22;15182;48.174;11.562;2022-08-19T14:21:17;26.40;96.40
27803;DHT22;15182;48.174;11.562;2022-08-19T14:23:52;26.40;96.30
27803;DHT22;15182;48.174;11.562;2022-08-19T14:26:24;26.40;96.30
27803;DHT22;15182;48.174;11.562;2022-08-19T14:28:56;26.40;96.20
27803;DHT22;15182;48.174;11.562;2022-08-19T14:31:29;26.40;96.10
27803;DHT22;15182;48.174;11.562;2022-08-19T14:34:00;26.40;96.10
27803;DHT22;15182;48.174;11.562;2022-08-19T14:36:32;26.30;96.10
27803;DHT22;15182;48.174;11.562;2022-08-19T14:39:06;26.30;96.10
27803;DHT22;15182;48.174;11.562;2022-08-19T14:41:39;26.20;96.20
27803;DHT22;15182;48.174;11.562;2022-08-19T14:44:12;26.10;96.20
27803;DHT22;15182;48.174;11.562;2022-08-19T14:46:43;26.00;96.20
27803;DHT22;15182;48.174;11.562;2022-08-19T14:49:15;26.00;96.30
27803;DHT22;15182;48.174;11.562;2022-08-19T14:51:46;26.00;96.30
27803;DHT22;15182;48.174;11.562;2022-08-19T14:54:18;26.00;96.30
27803;DHT22;15182;48.174;11.562;2022-08-19T14:56:49;26.00;96.20
27803;DHT22;15182;48.174;11.562;2022-08-19T14:59:22;26.00;96.10
27803;DHT22;15182;48.174;11.562;2022-08-19T15:01:54;26.00;96.10
27803;DHT22;15182;48.174;11.562;2022-08-19T15:04:25;26.00;96.00
27803;DHT22;15182;48.174;11.562;2022-08-19T15:06:56;26.00;96.00
27803;DHT22;15182;48.174;11.562;2022-08-19T15:09:28;26.00;96.00
27803;DHT22;15182;48.174;11.562;2022-08-19T15:12:00;25.90;95.90
27803;DHT22;15182;48.174;11.562;2022-08-19T15:14:35;25.90;95.80
27803;DHT22;15182;48.174;11.562;2022-08-19T15:17:07;25.90;95.60
27803;DHT22;15182;48.174;11.562;2022-08-19T15:19:38;25.80;95.80
27803;DHT22;15182;48.174;11.562;2022-08-19T15:22:09;25.80;95.90
27803;DHT22;15182;48.174;11.562;2022-08-19T15:24:41;25.80;96.00
27803;DHT22;15182;48.174;11.562;2022-08-19T15:27:13;25.80;95.90
27803;DHT22;15182;48.174;11.562;2022-08-19T15:29:46;25.70;95.90
27803;DHT22;15182;48.174;11.562;2022-08-19T15:32:17;25.60;95.90
27803;DHT22;15182;48.174;11.562;2022-08-19T15:34:49;25.60;96.00
27803;DHT22;15182;48.174;11.562;2022-08-19T15:37:20;25.50;96.10
27803;DHT22;15182;48.174;11.562;2022-08-19T15:39:52;25.40;96.10
27803;DHT22;15182;48.174;11.562;2022-08-19T15:42:23;25.40;96.40
27803;DHT22;15182;48.174;11.562;2022-08-19T15:44:56;25.30;96.60
27803;DHT22;15182;48.174;11.562;2022-08-19T15:47:29;25.30;96.80
27803;DHT22;15182;48.174;11.562;2022-08-19T15:50:01;25.20;97.10
27803;DHT22;15182;48.174;11.562;2022-08-19T15:52:34;25.20;97.60
27803;DHT22;15182;48.174;11.562;2022-08-19T15:55:06;25.20;97.20